EXS917 EGCC-GCTS
Flight info
| Callsign | EXS917 |
|---|---|
| Flight time | 4h 1m |
| Altitude | 40000 |
| Route | ASMIM1S ASMIM DCT NOKIN P17 BEPHE/N0464F400 DCT OSSEP DCT ELNIF DCT ZESPE DCT DAWLY DCT BHD DCT ANNET/N0460F390 DCT EKVEB DCT KORUL DCT DEMOS DCT IBIDO DCT TUNAV DCT VABEM DCT RULET DCT ORTIS ORTIS1G |
| Aircraft | A332/H-SDE3GHIJ2J3J5M1RVWXY/LB2D1 |
Departure
| Time | 2026-05-06 11:10 |
|---|---|
| Airport | Manchester Airport (EGCC) |
Arrival
| Time | 2026-05-06 15:12 |
|---|---|
| Airport | Tenerife Sur Airport (GCTS) |
| Time | Latitude | Longitude | Altitude | Speed | Heading |
|---|---|---|---|---|---|
| 2026-05-06 10:50 | 53.36696 | -2.28467 | 259 ft | 0 kts | 135° |
| 2026-05-06 10:58 | 53.36698 | -2.28470 | 259 ft | 2 kts | 135° |
| 2026-05-06 10:58 | 53.36716 | -2.28501 | 259 ft | 4 kts | 135° |
| 2026-05-06 10:58 | 53.36735 | -2.28533 | 259 ft | 2 kts | 134° |
| 2026-05-06 10:59 | 53.36752 | -2.28555 | 259 ft | 4 kts | 179° |
| 2026-05-06 10:59 | 53.36775 | -2.28542 | 259 ft | 4 kts | 220° |
| 2026-05-06 10:59 | 53.36785 | -2.28526 | 259 ft | 1 kts | 224° |
| 2026-05-06 10:59 | 53.36786 | -2.28524 | 259 ft | 0 kts | 224° |
| 2026-05-06 11:03 | 53.36756 | -2.28575 | 259 ft | 10 kts | 225° |
| 2026-05-06 11:03 | 53.36710 | -2.28651 | 259 ft | 2 kts | 225° |
| 2026-05-06 11:03 | 53.36683 | -2.28693 | 259 ft | 8 kts | 223° |
| 2026-05-06 11:04 | 53.36653 | -2.28737 | 259 ft | 0 kts | 220° |
| 2026-05-06 11:04 | 53.36625 | -2.28767 | 259 ft | 7 kts | 202° |
| 2026-05-06 11:04 | 53.36569 | -2.28736 | 259 ft | 10 kts | 142° |
| 2026-05-06 11:04 | 53.36511 | -2.28642 | 259 ft | 13 kts | 134° |
| 2026-05-06 11:05 | 53.36445 | -2.28529 | 259 ft | 13 kts | 137° |
| 2026-05-06 11:05 | 53.36357 | -2.28464 | 259 ft | 15 kts | 156° |
| 2026-05-06 11:05 | 53.36269 | -2.28343 | 259 ft | 17 kts | 133° |
| 2026-05-06 11:05 | 53.36185 | -2.28193 | 259 ft | 18 kts | 134° |
| 2026-05-06 11:06 | 53.36089 | -2.28044 | 259 ft | 19 kts | 139° |
| 2026-05-06 11:06 | 53.36000 | -2.27914 | 259 ft | 14 kts | 139° |
| 2026-05-06 11:06 | 53.35900 | -2.27850 | 259 ft | 18 kts | 181° |
| 2026-05-06 11:06 | 53.35753 | -2.27872 | 251 ft | 25 kts | 185° |
| 2026-05-06 11:07 | 53.35578 | -2.27905 | 242 ft | 25 kts | 186° |
| 2026-05-06 11:07 | 53.35425 | -2.27972 | 241 ft | 24 kts | 217° |
| 2026-05-06 11:07 | 53.35297 | -2.28181 | 237 ft | 28 kts | 224° |
| 2026-05-06 11:07 | 53.35163 | -2.28444 | 234 ft | 31 kts | 231° |
| 2026-05-06 11:08 | 53.35024 | -2.28726 | 232 ft | 32 kts | 227° |
| 2026-05-06 11:08 | 53.34866 | -2.29001 | 226 ft | 35 kts | 227° |
| 2026-05-06 11:08 | 53.34737 | -2.29253 | 224 ft | 23 kts | 228° |
| 2026-05-06 11:08 | 53.34617 | -2.29337 | 216 ft | 20 kts | 174° |
| 2026-05-06 11:09 | 53.34550 | -2.29211 | 222 ft | 15 kts | 74° |
| 2026-05-06 11:09 | 53.34577 | -2.29143 | 227 ft | 0 kts | 51° |
| 2026-05-06 11:09 | 53.34635 | -2.29020 | 226 ft | 41 kts | 51° |
| 2026-05-06 11:09 | 53.34952 | -2.28369 | 237 ft | 102 kts | 51° |
| 2026-05-06 11:10 | 53.35519 | -2.27194 | 284 ft | 153 kts | 51° |
| 2026-05-06 11:10 | 53.36231 | -2.25771 | 839 ft | 165 kts | 50° |
| 2026-05-06 11:10 | 53.37018 | -2.24266 | 1583 ft | 180 kts | 49° |
| 2026-05-06 11:10 | 53.37876 | -2.22534 | 1997 ft | 209 kts | 49° |
| 2026-05-06 11:11 | 53.39065 | -2.20956 | 2465 ft | 234 kts | 23° |
| 2026-05-06 11:11 | 53.40711 | -2.20703 | 3172 ft | 249 kts | 346° |
| 2026-05-06 11:11 | 53.42180 | -2.22264 | 4006 ft | 258 kts | 310° |
| 2026-05-06 11:11 | 53.42993 | -2.24949 | 4720 ft | 261 kts | 291° |
| 2026-05-06 11:12 | 53.43539 | -2.27879 | 5564 ft | 264 kts | 289° |
| 2026-05-06 11:12 | 53.44065 | -2.30814 | 6610 ft | 262 kts | 290° |
| 2026-05-06 11:12 | 53.44644 | -2.33711 | 7544 ft | 263 kts | 294° |
| 2026-05-06 11:12 | 53.45409 | -2.36520 | 8413 ft | 268 kts | 297° |
| 2026-05-06 11:13 | 53.46245 | -2.39339 | 9302 ft | 273 kts | 296° |
| 2026-05-06 11:13 | 53.46827 | -2.42348 | 10153 ft | 279 kts | 278° |
| 2026-05-06 11:13 | 53.46799 | -2.45700 | 10650 ft | 299 kts | 264° |
| 2026-05-06 11:13 | 53.46438 | -2.49262 | 10999 ft | 320 kts | 260° |
| 2026-05-06 11:14 | 53.45997 | -2.53006 | 11553 ft | 332 kts | 260° |
| 2026-05-06 11:14 | 53.45548 | -2.56836 | 12297 ft | 338 kts | 259° |
| 2026-05-06 11:14 | 53.44901 | -2.60645 | 13103 ft | 343 kts | 249° |
| 2026-05-06 11:14 | 53.43671 | -2.64098 | 13908 ft | 350 kts | 231° |
| 2026-05-06 11:15 | 53.41822 | -2.66781 | 14629 ft | 357 kts | 213° |
| 2026-05-06 11:15 | 53.39629 | -2.68682 | 15341 ft | 362 kts | 206° |
| 2026-05-06 11:15 | 53.37282 | -2.70276 | 16086 ft | 366 kts | 202° |
| 2026-05-06 11:15 | 53.34870 | -2.71710 | 16813 ft | 370 kts | 201° |
| 2026-05-06 11:16 | 53.32428 | -2.73099 | 17527 ft | 373 kts | 200° |
| 2026-05-06 11:16 | 53.29962 | -2.74513 | 18242 ft | 376 kts | 201° |
| 2026-05-06 11:16 | 53.27481 | -2.75970 | 18859 ft | 379 kts | 201° |
| 2026-05-06 11:16 | 53.24987 | -2.77472 | 19465 ft | 383 kts | 202° |
| 2026-05-06 11:17 | 53.22478 | -2.79009 | 20057 ft | 385 kts | 202° |
| 2026-05-06 11:17 | 53.19953 | -2.80573 | 20641 ft | 389 kts | 202° |
| 2026-05-06 11:17 | 53.17442 | -2.82133 | 21213 ft | 392 kts | 202° |
| 2026-05-06 11:17 | 53.14882 | -2.83724 | 21788 ft | 395 kts | 202° |
| 2026-05-06 11:18 | 53.12300 | -2.85326 | 22362 ft | 397 kts | 202° |
| 2026-05-06 11:18 | 53.09641 | -2.86692 | 22923 ft | 402 kts | 195° |
| 2026-05-06 11:18 | 53.06856 | -2.87350 | 23490 ft | 408 kts | 184° |
| 2026-05-06 11:18 | 53.03999 | -2.87188 | 23940 ft | 414 kts | 177° |
| 2026-05-06 11:19 | 53.01126 | -2.86638 | 24396 ft | 417 kts | 174° |
| 2026-05-06 11:19 | 52.98253 | -2.85895 | 24853 ft | 420 kts | 172° |
| 2026-05-06 11:19 | 52.95364 | -2.85061 | 25292 ft | 422 kts | 172° |
| 2026-05-06 11:19 | 52.92466 | -2.84204 | 25742 ft | 424 kts | 172° |
| 2026-05-06 11:20 | 52.89592 | -2.83366 | 26176 ft | 426 kts | 172° |
| 2026-05-06 11:20 | 52.86663 | -2.82533 | 26608 ft | 428 kts | 173° |
| 2026-05-06 11:20 | 52.83718 | -2.81717 | 27044 ft | 430 kts | 173° |
| 2026-05-06 11:20 | 52.80754 | -2.80909 | 27484 ft | 433 kts | 173° |
| 2026-05-06 11:21 | 52.77776 | -2.80107 | 27903 ft | 435 kts | 173° |
| 2026-05-06 11:21 | 52.74784 | -2.79306 | 28339 ft | 437 kts | 173° |
| 2026-05-06 11:21 | 52.71772 | -2.78502 | 28732 ft | 440 kts | 173° |
| 2026-05-06 11:21 | 52.68739 | -2.77693 | 29135 ft | 442 kts | 173° |
| 2026-05-06 11:22 | 52.65698 | -2.76882 | 29545 ft | 445 kts | 173° |
| 2026-05-06 11:22 | 52.62672 | -2.76155 | 29946 ft | 445 kts | 177° |
| 2026-05-06 11:22 | 52.59575 | -2.75966 | 30302 ft | 446 kts | 183° |
| 2026-05-06 11:22 | 52.56470 | -2.76075 | 30642 ft | 447 kts | 184° |
| 2026-05-06 11:23 | 52.53355 | -2.76290 | 30970 ft | 449 kts | 185° |
| 2026-05-06 11:23 | 52.50225 | -2.76564 | 31309 ft | 451 kts | 186° |
| 2026-05-06 11:23 | 52.47089 | -2.76860 | 31596 ft | 454 kts | 185° |
| 2026-05-06 11:23 | 52.43919 | -2.77161 | 31893 ft | 457 kts | 185° |
| 2026-05-06 11:24 | 52.40792 | -2.77451 | 32321 ft | 456 kts | 185° |
| 2026-05-06 11:24 | 52.37630 | -2.77735 | 32831 ft | 454 kts | 185° |
| 2026-05-06 11:24 | 52.34479 | -2.78012 | 33301 ft | 453 kts | 185° |
| 2026-05-06 11:24 | 52.31341 | -2.78284 | 33751 ft | 452 kts | 185° |
| 2026-05-06 11:25 | 52.28206 | -2.78553 | 34150 ft | 451 kts | 185° |
| 2026-05-06 11:25 | 52.25076 | -2.78822 | 34475 ft | 450 kts | 185° |
| 2026-05-06 11:25 | 52.21945 | -2.79091 | 34745 ft | 452 kts | 185° |
| 2026-05-06 11:25 | 52.18800 | -2.79361 | 35028 ft | 452 kts | 185° |
| 2026-05-06 11:26 | 52.15697 | -2.79627 | 35339 ft | 452 kts | 185° |
| 2026-05-06 11:26 | 52.12561 | -2.79896 | 35651 ft | 452 kts | 185° |
| 2026-05-06 11:26 | 52.09411 | -2.80165 | 35942 ft | 452 kts | 185° |
| 2026-05-06 11:26 | 52.06272 | -2.80433 | 36220 ft | 453 kts | 185° |
| 2026-05-06 11:27 | 52.03118 | -2.80702 | 36492 ft | 453 kts | 185° |
| 2026-05-06 11:27 | 51.99969 | -2.80971 | 36752 ft | 454 kts | 185° |
| 2026-05-06 11:27 | 51.96810 | -2.81239 | 37014 ft | 455 kts | 185° |
| 2026-05-06 11:27 | 51.93648 | -2.81507 | 37300 ft | 455 kts | 185° |
| 2026-05-06 11:28 | 51.90529 | -2.81771 | 37593 ft | 455 kts | 184° |
| 2026-05-06 11:28 | 51.87370 | -2.82038 | 37879 ft | 455 kts | 184° |
| 2026-05-06 11:28 | 51.84214 | -2.82395 | 38145 ft | 454 kts | 187° |
| 2026-05-06 11:28 | 51.81078 | -2.82959 | 38424 ft | 454 kts | 188° |
| 2026-05-06 11:29 | 51.77947 | -2.83637 | 38679 ft | 454 kts | 189° |
| 2026-05-06 11:29 | 51.74819 | -2.84359 | 38872 ft | 454 kts | 189° |
| 2026-05-06 11:29 | 51.71694 | -2.85084 | 39054 ft | 454 kts | 189° |
| 2026-05-06 11:29 | 51.68562 | -2.85797 | 39231 ft | 455 kts | 189° |
| 2026-05-06 11:30 | 51.65427 | -2.86493 | 39421 ft | 455 kts | 189° |
| 2026-05-06 11:30 | 51.62334 | -2.87165 | 39598 ft | 455 kts | 189° |
| 2026-05-06 11:30 | 51.59194 | -2.87839 | 39774 ft | 455 kts | 189° |
| 2026-05-06 11:30 | 51.56071 | -2.88694 | 39934 ft | 455 kts | 194° |
| 2026-05-06 11:31 | 51.53036 | -2.90101 | 40022 ft | 455 kts | 199° |
| 2026-05-06 11:31 | 51.47040 | -2.93499 | 40033 ft | 457 kts | 201° |
| 2026-05-06 11:32 | 51.41127 | -2.97084 | 40020 ft | 457 kts | 202° |
| 2026-05-06 11:32 | 51.35179 | -3.00695 | 40023 ft | 457 kts | 201° |
| 2026-05-06 11:33 | 51.29222 | -3.04268 | 40014 ft | 457 kts | 201° |
| 2026-05-06 11:33 | 51.23260 | -3.07815 | 40022 ft | 457 kts | 201° |
| 2026-05-06 11:34 | 51.17340 | -3.11324 | 40021 ft | 457 kts | 201° |
| 2026-05-06 11:34 | 51.11381 | -3.14847 | 40025 ft | 457 kts | 201° |
| 2026-05-06 11:35 | 51.05412 | -3.18367 | 40019 ft | 457 kts | 201° |
| 2026-05-06 11:35 | 50.99446 | -3.21876 | 40018 ft | 457 kts | 201° |
| 2026-05-06 11:36 | 50.93526 | -3.25349 | 40018 ft | 457 kts | 201° |
| 2026-05-06 11:36 | 50.87557 | -3.28841 | 40019 ft | 457 kts | 201° |
| 2026-05-06 11:37 | 50.81584 | -3.32326 | 40016 ft | 458 kts | 201° |
| 2026-05-06 11:37 | 50.75600 | -3.35808 | 40021 ft | 458 kts | 201° |
| 2026-05-06 11:38 | 50.69618 | -3.39278 | 40021 ft | 459 kts | 201° |
| 2026-05-06 11:38 | 50.63662 | -3.42724 | 40021 ft | 458 kts | 201° |
| 2026-05-06 11:39 | 50.57612 | -3.45906 | 40010 ft | 459 kts | 193° |
| 2026-05-06 11:39 | 50.51296 | -3.47444 | 40012 ft | 460 kts | 188° |
| 2026-05-06 11:40 | 50.44965 | -3.48534 | 40012 ft | 461 kts | 187° |
| 2026-05-06 11:40 | 50.38700 | -3.50406 | 40012 ft | 458 kts | 200° |
| 2026-05-06 11:41 | 50.32777 | -3.54062 | 40011 ft | 457 kts | 204° |
| 2026-05-06 11:41 | 50.26959 | -3.58076 | 40005 ft | 457 kts | 205° |
| 2026-05-06 11:42 | 50.21192 | -3.62106 | 40005 ft | 457 kts | 205° |
| 2026-05-06 11:42 | 50.15378 | -3.66120 | 40005 ft | 457 kts | 205° |
| 2026-05-06 11:43 | 50.09546 | -3.70106 | 40007 ft | 458 kts | 205° |
| 2026-05-06 11:43 | 50.03710 | -3.74077 | 40005 ft | 458 kts | 205° |
| 2026-05-06 11:44 | 49.94991 | -3.79990 | 40004 ft | 458 kts | 205° |
| 2026-05-06 11:44 | 49.89155 | -3.83936 | 40002 ft | 458 kts | 205° |
| 2026-05-06 11:45 | 49.83318 | -3.87873 | 39709 ft | 457 kts | 204° |
| 2026-05-06 11:45 | 49.80410 | -3.89830 | 39357 ft | 453 kts | 204° |
| 2026-05-06 11:45 | 49.77570 | -3.91738 | 39096 ft | 448 kts | 205° |
| 2026-05-06 11:46 | 49.71868 | -3.95564 | 38999 ft | 448 kts | 205° |
| 2026-05-06 11:46 | 49.66147 | -3.99394 | 39004 ft | 449 kts | 204° |
| 2026-05-06 11:47 | 49.60377 | -4.03142 | 39001 ft | 450 kts | 203° |
| 2026-05-06 11:47 | 49.54583 | -4.06805 | 39001 ft | 451 kts | 203° |
| 2026-05-06 11:48 | 49.48813 | -4.10439 | 38999 ft | 451 kts | 203° |
| 2026-05-06 11:48 | 49.43008 | -4.14099 | 38997 ft | 451 kts | 203° |
| 2026-05-06 11:49 | 49.37194 | -4.17762 | 39002 ft | 451 kts | 203° |
| 2026-05-06 11:49 | 49.31385 | -4.21413 | 39002 ft | 452 kts | 203° |
| 2026-05-06 11:50 | 49.25604 | -4.25038 | 38997 ft | 452 kts | 203° |
| 2026-05-06 11:50 | 49.19786 | -4.28676 | 38999 ft | 452 kts | 203° |
| 2026-05-06 11:51 | 49.13971 | -4.32303 | 38998 ft | 452 kts | 203° |
| 2026-05-06 11:51 | 49.08187 | -4.35902 | 38999 ft | 452 kts | 203° |
| 2026-05-06 11:52 | 49.02365 | -4.39515 | 38999 ft | 452 kts | 203° |
| 2026-05-06 11:52 | 48.96536 | -4.43123 | 38995 ft | 452 kts | 203° |
| 2026-05-06 11:53 | 48.90716 | -4.46716 | 39001 ft | 452 kts | 203° |
| 2026-05-06 11:53 | 48.84928 | -4.50281 | 39001 ft | 452 kts | 203° |
| 2026-05-06 11:54 | 48.79104 | -4.53859 | 38999 ft | 452 kts | 203° |
| 2026-05-06 11:54 | 48.73275 | -4.57431 | 38997 ft | 452 kts | 203° |
| 2026-05-06 11:55 | 48.67448 | -4.60993 | 38999 ft | 452 kts | 203° |
| 2026-05-06 11:55 | 48.61656 | -4.64525 | 39001 ft | 452 kts | 203° |
| 2026-05-06 11:56 | 48.55827 | -4.68070 | 39003 ft | 452 kts | 202° |
| 2026-05-06 11:56 | 48.49992 | -4.71610 | 39002 ft | 451 kts | 202° |
| 2026-05-06 11:57 | 48.44162 | -4.75138 | 39003 ft | 451 kts | 203° |
| 2026-05-06 11:57 | 48.38374 | -4.78633 | 39000 ft | 451 kts | 202° |
| 2026-05-06 11:58 | 48.32543 | -4.82145 | 38998 ft | 451 kts | 202° |
| 2026-05-06 11:58 | 48.26708 | -4.85650 | 39004 ft | 452 kts | 202° |
| 2026-05-06 11:59 | 48.20873 | -4.89146 | 39003 ft | 452 kts | 203° |
| 2026-05-06 11:59 | 48.15036 | -4.92635 | 39003 ft | 452 kts | 202° |
| 2026-05-06 12:00 | 48.09235 | -4.96094 | 39005 ft | 452 kts | 203° |
| 2026-05-06 12:00 | 48.03397 | -4.99567 | 39007 ft | 452 kts | 202° |
| 2026-05-06 12:01 | 47.97558 | -5.03032 | 39007 ft | 452 kts | 203° |
| 2026-05-06 12:01 | 47.91751 | -5.06470 | 39005 ft | 451 kts | 202° |
| 2026-05-06 12:02 | 47.85916 | -5.09915 | 39017 ft | 451 kts | 203° |
| 2026-05-06 12:02 | 47.80073 | -5.13358 | 39009 ft | 451 kts | 202° |
| 2026-05-06 12:03 | 47.74236 | -5.16789 | 39024 ft | 451 kts | 202° |
| 2026-05-06 12:03 | 47.68394 | -5.20214 | 39003 ft | 451 kts | 202° |
| 2026-05-06 12:04 | 47.62590 | -5.23608 | 39019 ft | 451 kts | 202° |
| 2026-05-06 12:04 | 47.56748 | -5.27016 | 39014 ft | 451 kts | 202° |
| 2026-05-06 12:05 | 47.50901 | -5.30419 | 39019 ft | 451 kts | 202° |
| 2026-05-06 12:05 | 47.45092 | -5.33792 | 39020 ft | 452 kts | 203° |
| 2026-05-06 12:06 | 47.39245 | -5.37180 | 39022 ft | 452 kts | 202° |
| 2026-05-06 12:06 | 47.33390 | -5.40563 | 39016 ft | 452 kts | 202° |
| 2026-05-06 12:07 | 47.27542 | -5.43935 | 39021 ft | 452 kts | 202° |
| 2026-05-06 12:07 | 47.21724 | -5.47281 | 39027 ft | 452 kts | 202° |
| 2026-05-06 12:08 | 47.15872 | -5.50639 | 39028 ft | 452 kts | 202° |
| 2026-05-06 12:08 | 47.10016 | -5.53991 | 39030 ft | 452 kts | 202° |
| 2026-05-06 12:09 | 47.04165 | -5.57332 | 39020 ft | 452 kts | 202° |
| 2026-05-06 12:09 | 46.98340 | -5.60651 | 39033 ft | 452 kts | 202° |
| 2026-05-06 12:10 | 46.92477 | -5.63984 | 39033 ft | 452 kts | 202° |
| 2026-05-06 12:10 | 46.86609 | -5.67311 | 39033 ft | 452 kts | 202° |
| 2026-05-06 12:11 | 46.81734 | -5.70070 | 39025 ft | 452 kts | 202° |
| 2026-05-06 12:11 | 46.74910 | -5.73922 | 39030 ft | 452 kts | 202° |
| 2026-05-06 12:12 | 46.69045 | -5.77225 | 39031 ft | 452 kts | 202° |
| 2026-05-06 12:12 | 46.63178 | -5.80521 | 39035 ft | 452 kts | 202° |
| 2026-05-06 12:13 | 46.58323 | -5.83341 | 39039 ft | 452 kts | 204° |
| 2026-05-06 12:13 | 46.51639 | -5.87617 | 39039 ft | 451 kts | 205° |
| 2026-05-06 12:14 | 46.46875 | -5.90718 | 39040 ft | 451 kts | 205° |
| 2026-05-06 12:14 | 46.41138 | -5.94417 | 39031 ft | 451 kts | 205° |
| 2026-05-06 12:15 | 46.35388 | -5.98088 | 39040 ft | 452 kts | 205° |
| 2026-05-06 12:15 | 46.28698 | -6.02339 | 39041 ft | 452 kts | 205° |
| 2026-05-06 12:16 | 46.23915 | -6.05370 | 39039 ft | 451 kts | 205° |
| 2026-05-06 12:16 | 46.18162 | -6.09010 | 39044 ft | 451 kts | 205° |
| 2026-05-06 12:17 | 46.11475 | -6.13230 | 39043 ft | 451 kts | 205° |
| 2026-05-06 12:17 | 46.06695 | -6.16242 | 39043 ft | 451 kts | 205° |
| 2026-05-06 12:18 | 46.00942 | -6.19857 | 39044 ft | 451 kts | 204° |
| 2026-05-06 12:18 | 45.95187 | -6.23466 | 39047 ft | 451 kts | 204° |
| 2026-05-06 12:19 | 45.89428 | -6.27069 | 39044 ft | 451 kts | 204° |
| 2026-05-06 12:19 | 45.83710 | -6.30638 | 39044 ft | 451 kts | 204° |
| 2026-05-06 12:20 | 45.77954 | -6.34223 | 39044 ft | 451 kts | 204° |
| 2026-05-06 12:20 | 45.72196 | -6.37801 | 39048 ft | 451 kts | 204° |
| 2026-05-06 12:21 | 45.66431 | -6.41376 | 39041 ft | 451 kts | 204° |
| 2026-05-06 12:21 | 45.60708 | -6.44916 | 39048 ft | 451 kts | 204° |
| 2026-05-06 12:22 | 45.54947 | -6.48472 | 39043 ft | 451 kts | 204° |
| 2026-05-06 12:22 | 45.49181 | -6.52022 | 39044 ft | 451 kts | 204° |
| 2026-05-06 12:23 | 45.43415 | -6.55566 | 39044 ft | 451 kts | 204° |
| 2026-05-06 12:23 | 45.37691 | -6.59075 | 39041 ft | 451 kts | 204° |
| 2026-05-06 12:24 | 45.31925 | -6.62603 | 39039 ft | 451 kts | 204° |
| 2026-05-06 12:24 | 45.26155 | -6.66125 | 39042 ft | 451 kts | 204° |
| 2026-05-06 12:25 | 45.20383 | -6.69640 | 39045 ft | 451 kts | 204° |
| 2026-05-06 12:25 | 45.14653 | -6.73122 | 39043 ft | 451 kts | 204° |
| 2026-05-06 12:26 | 45.08878 | -6.76624 | 39044 ft | 451 kts | 204° |
| 2026-05-06 12:26 | 45.03104 | -6.80117 | 39043 ft | 451 kts | 204° |
| 2026-05-06 12:27 | 44.97326 | -6.83605 | 39053 ft | 451 kts | 204° |
| 2026-05-06 12:27 | 44.91590 | -6.87061 | 39038 ft | 451 kts | 204° |
| 2026-05-06 12:28 | 44.85808 | -6.90537 | 39053 ft | 452 kts | 205° |
| 2026-05-06 12:28 | 44.80310 | -6.94763 | 39052 ft | 450 kts | 212° |
| 2026-05-06 12:29 | 44.74992 | -6.99403 | 39048 ft | 450 kts | 213° |
| 2026-05-06 12:29 | 44.69748 | -7.04078 | 39048 ft | 449 kts | 213° |
| 2026-05-06 12:30 | 44.64468 | -7.08770 | 39048 ft | 449 kts | 213° |
| 2026-05-06 12:30 | 44.59170 | -7.13448 | 39048 ft | 450 kts | 213° |
| 2026-05-06 12:31 | 44.53869 | -7.18109 | 39053 ft | 450 kts | 213° |
| 2026-05-06 12:31 | 44.48573 | -7.22754 | 39048 ft | 449 kts | 213° |
| 2026-05-06 12:32 | 44.43303 | -7.27367 | 39050 ft | 450 kts | 213° |
| 2026-05-06 12:32 | 44.37996 | -7.32003 | 39045 ft | 450 kts | 213° |
| 2026-05-06 12:33 | 44.32686 | -7.36632 | 39051 ft | 450 kts | 213° |
| 2026-05-06 12:33 | 44.27378 | -7.41249 | 39050 ft | 449 kts | 213° |
| 2026-05-06 12:34 | 44.22103 | -7.45827 | 39053 ft | 449 kts | 213° |
| 2026-05-06 12:34 | 44.16792 | -7.50427 | 39045 ft | 449 kts | 213° |
| 2026-05-06 12:35 | 44.11481 | -7.55016 | 39048 ft | 449 kts | 213° |
| 2026-05-06 12:35 | 44.06177 | -7.59590 | 39049 ft | 449 kts | 213° |
| 2026-05-06 12:36 | 44.00902 | -7.64130 | 39050 ft | 449 kts | 213° |
| 2026-05-06 12:36 | 43.95592 | -7.68690 | 39050 ft | 449 kts | 213° |
| 2026-05-06 12:37 | 43.90272 | -7.73248 | 39053 ft | 449 kts | 213° |
| 2026-05-06 12:37 | 43.84954 | -7.77795 | 39053 ft | 449 kts | 213° |
| 2026-05-06 12:38 | 43.79671 | -7.82303 | 39050 ft | 449 kts | 213° |
| 2026-05-06 12:38 | 43.74353 | -7.86831 | 39048 ft | 449 kts | 213° |
| 2026-05-06 12:39 | 43.69036 | -7.91348 | 39052 ft | 448 kts | 213° |
| 2026-05-06 12:39 | 43.63718 | -7.95856 | 39054 ft | 448 kts | 213° |
| 2026-05-06 12:40 | 43.58402 | -8.00355 | 39056 ft | 448 kts | 213° |
| 2026-05-06 12:40 | 43.53115 | -8.04818 | 39054 ft | 448 kts | 213° |
| 2026-05-06 12:41 | 43.47794 | -8.09302 | 39054 ft | 448 kts | 213° |
| 2026-05-06 12:41 | 43.42473 | -8.13776 | 39049 ft | 448 kts | 213° |
| 2026-05-06 12:42 | 43.37192 | -8.18208 | 39049 ft | 448 kts | 213° |
| 2026-05-06 12:42 | 43.31867 | -8.22666 | 39050 ft | 448 kts | 213° |
| 2026-05-06 12:43 | 43.26544 | -8.27113 | 39045 ft | 447 kts | 213° |
| 2026-05-06 12:43 | 43.21227 | -8.31547 | 39048 ft | 447 kts | 213° |
| 2026-05-06 12:44 | 43.15937 | -8.35949 | 39048 ft | 448 kts | 213° |
| 2026-05-06 12:44 | 43.10611 | -8.40372 | 39045 ft | 448 kts | 213° |
| 2026-05-06 12:45 | 43.05279 | -8.44791 | 39047 ft | 448 kts | 213° |
| 2026-05-06 12:46 | 42.97288 | -8.51396 | 39047 ft | 447 kts | 213° |
| 2026-05-06 12:46 | 42.91996 | -8.55759 | 39045 ft | 448 kts | 213° |
| 2026-05-06 12:47 | 42.86663 | -8.60146 | 39045 ft | 447 kts | 213° |
| 2026-05-06 12:47 | 42.81332 | -8.64524 | 39038 ft | 447 kts | 213° |
| 2026-05-06 12:48 | 42.76005 | -8.68890 | 39037 ft | 447 kts | 213° |
| 2026-05-06 12:48 | 42.70709 | -8.73221 | 39034 ft | 447 kts | 213° |
| 2026-05-06 12:49 | 42.65369 | -8.77579 | 39035 ft | 448 kts | 213° |
| 2026-05-06 12:49 | 42.60025 | -8.81932 | 39039 ft | 448 kts | 213° |
| 2026-05-06 12:50 | 42.54682 | -8.86275 | 39042 ft | 448 kts | 213° |
| 2026-05-06 12:50 | 42.49373 | -8.90581 | 39038 ft | 448 kts | 212° |
| 2026-05-06 12:51 | 42.44033 | -8.94904 | 39041 ft | 448 kts | 212° |
| 2026-05-06 12:51 | 42.38685 | -8.99226 | 39041 ft | 448 kts | 212° |
| 2026-05-06 12:52 | 42.33331 | -9.03543 | 39039 ft | 448 kts | 212° |
| 2026-05-06 12:52 | 42.28017 | -9.07820 | 39041 ft | 448 kts | 212° |
| 2026-05-06 12:53 | 42.22665 | -9.12118 | 39040 ft | 448 kts | 212° |
| 2026-05-06 12:53 | 42.17309 | -9.16411 | 39042 ft | 448 kts | 212° |
| 2026-05-06 12:54 | 42.11954 | -9.20696 | 39042 ft | 448 kts | 212° |
| 2026-05-06 12:54 | 42.06632 | -9.24945 | 39045 ft | 448 kts | 212° |
| 2026-05-06 12:55 | 42.01278 | -9.29211 | 39048 ft | 448 kts | 212° |
| 2026-05-06 12:55 | 41.95917 | -9.33475 | 39041 ft | 447 kts | 212° |
| 2026-05-06 12:56 | 41.90569 | -9.37735 | 39045 ft | 447 kts | 213° |
| 2026-05-06 12:56 | 41.85270 | -9.42002 | 39048 ft | 447 kts | 213° |
| 2026-05-06 12:57 | 41.79943 | -9.46297 | 39036 ft | 447 kts | 213° |
| 2026-05-06 12:57 | 41.74612 | -9.50582 | 39044 ft | 447 kts | 213° |
| 2026-05-06 12:58 | 41.69281 | -9.54855 | 39046 ft | 447 kts | 213° |
| 2026-05-06 12:58 | 41.63946 | -9.59121 | 39042 ft | 447 kts | 213° |
| 2026-05-06 12:59 | 41.58646 | -9.63351 | 39046 ft | 447 kts | 213° |
| 2026-05-06 12:59 | 41.53309 | -9.67602 | 39044 ft | 446 kts | 213° |
| 2026-05-06 13:00 | 41.47976 | -9.71842 | 39050 ft | 446 kts | 213° |
| 2026-05-06 13:00 | 41.42640 | -9.76076 | 39050 ft | 446 kts | 213° |
| 2026-05-06 13:01 | 41.37334 | -9.80278 | 39050 ft | 446 kts | 213° |
| 2026-05-06 13:01 | 41.31998 | -9.84496 | 39049 ft | 446 kts | 213° |
| 2026-05-06 13:02 | 41.26655 | -9.88711 | 39053 ft | 447 kts | 213° |
| 2026-05-06 13:02 | 41.21307 | -9.92923 | 39053 ft | 447 kts | 213° |
| 2026-05-06 13:03 | 41.15996 | -9.97096 | 39053 ft | 447 kts | 213° |
| 2026-05-06 13:03 | 41.10644 | -10.01294 | 39048 ft | 447 kts | 213° |
| 2026-05-06 13:04 | 41.05298 | -10.05479 | 39061 ft | 446 kts | 213° |
| 2026-05-06 13:04 | 40.99961 | -10.09650 | 39060 ft | 446 kts | 213° |
| 2026-05-06 13:05 | 40.94650 | -10.13792 | 39061 ft | 446 kts | 213° |
| 2026-05-06 13:05 | 40.89305 | -10.17953 | 39047 ft | 446 kts | 213° |
| 2026-05-06 13:06 | 40.83966 | -10.22100 | 39056 ft | 445 kts | 213° |
| 2026-05-06 13:06 | 40.78621 | -10.26242 | 39060 ft | 446 kts | 213° |
| 2026-05-06 13:07 | 40.73264 | -10.30385 | 39061 ft | 446 kts | 213° |
| 2026-05-06 13:07 | 40.67945 | -10.34491 | 39060 ft | 446 kts | 213° |
| 2026-05-06 13:08 | 40.62587 | -10.38620 | 39055 ft | 446 kts | 213° |
| 2026-05-06 13:08 | 40.57236 | -10.42735 | 39058 ft | 445 kts | 213° |
| 2026-05-06 13:09 | 40.51882 | -10.46846 | 39059 ft | 445 kts | 213° |
| 2026-05-06 13:09 | 40.46567 | -10.50919 | 39058 ft | 446 kts | 213° |
| 2026-05-06 13:10 | 40.41208 | -10.55019 | 39056 ft | 445 kts | 213° |
| 2026-05-06 13:10 | 40.35858 | -10.59103 | 39066 ft | 445 kts | 213° |
| 2026-05-06 13:11 | 40.30495 | -10.63191 | 39065 ft | 446 kts | 213° |
| 2026-05-06 13:11 | 40.25167 | -10.67243 | 39064 ft | 446 kts | 213° |
| 2026-05-06 13:12 | 40.19796 | -10.71321 | 39064 ft | 446 kts | 213° |
| 2026-05-06 13:12 | 40.14424 | -10.75392 | 39067 ft | 446 kts | 213° |
| 2026-05-06 13:13 | 40.09050 | -10.79458 | 39067 ft | 446 kts | 213° |
| 2026-05-06 13:13 | 40.03715 | -10.83486 | 39067 ft | 446 kts | 213° |
| 2026-05-06 13:14 | 39.98339 | -10.87538 | 39070 ft | 446 kts | 213° |
| 2026-05-06 13:14 | 39.92963 | -10.91583 | 39065 ft | 446 kts | 213° |
| 2026-05-06 13:15 | 39.87598 | -10.95610 | 39065 ft | 445 kts | 213° |
| 2026-05-06 13:15 | 39.82217 | -10.99645 | 39069 ft | 447 kts | 213° |
| 2026-05-06 13:16 | 39.76862 | -11.03652 | 39073 ft | 447 kts | 213° |
| 2026-05-06 13:16 | 39.71466 | -11.07681 | 39062 ft | 447 kts | 213° |
| 2026-05-06 13:17 | 39.66077 | -11.11697 | 39076 ft | 446 kts | 213° |
| 2026-05-06 13:17 | 39.60694 | -11.15702 | 39068 ft | 446 kts | 213° |
| 2026-05-06 13:18 | 39.55352 | -11.19670 | 39074 ft | 446 kts | 213° |
| 2026-05-06 13:18 | 39.49963 | -11.23665 | 39059 ft | 446 kts | 213° |
| 2026-05-06 13:19 | 39.44583 | -11.27646 | 39071 ft | 445 kts | 213° |
| 2026-05-06 13:19 | 39.39198 | -11.31624 | 39072 ft | 445 kts | 213° |
| 2026-05-06 13:20 | 39.33823 | -11.35588 | 39078 ft | 446 kts | 213° |
| 2026-05-06 13:20 | 39.28465 | -11.39533 | 39078 ft | 447 kts | 213° |
| 2026-05-06 13:21 | 39.23060 | -11.43505 | 39061 ft | 447 kts | 213° |
| 2026-05-06 13:21 | 39.17666 | -11.47462 | 39074 ft | 446 kts | 213° |
| 2026-05-06 13:22 | 39.12272 | -11.51412 | 39077 ft | 446 kts | 213° |
| 2026-05-06 13:22 | 39.06919 | -11.55325 | 39076 ft | 446 kts | 213° |
| 2026-05-06 13:23 | 39.01521 | -11.59264 | 39072 ft | 446 kts | 213° |
| 2026-05-06 13:23 | 38.96122 | -11.63198 | 39075 ft | 446 kts | 213° |
| 2026-05-06 13:24 | 38.90719 | -11.67127 | 39080 ft | 446 kts | 213° |
| 2026-05-06 13:24 | 38.85359 | -11.71018 | 39078 ft | 446 kts | 213° |
| 2026-05-06 13:25 | 38.79955 | -11.74934 | 39076 ft | 446 kts | 213° |
| 2026-05-06 13:25 | 38.74550 | -11.78844 | 39072 ft | 446 kts | 212° |
| 2026-05-06 13:26 | 38.69148 | -11.82745 | 39079 ft | 445 kts | 212° |
| 2026-05-06 13:26 | 38.63793 | -11.86605 | 39081 ft | 445 kts | 212° |
| 2026-05-06 13:27 | 38.58396 | -11.90489 | 39082 ft | 445 kts | 212° |
| 2026-05-06 13:27 | 38.52993 | -11.94370 | 39082 ft | 445 kts | 212° |
| 2026-05-06 13:28 | 38.47598 | -11.98240 | 39078 ft | 445 kts | 212° |
| 2026-05-06 13:28 | 38.42233 | -12.02080 | 39081 ft | 445 kts | 212° |
| 2026-05-06 13:29 | 38.36834 | -12.05939 | 39082 ft | 445 kts | 212° |
| 2026-05-06 13:29 | 38.31411 | -12.09810 | 39086 ft | 447 kts | 212° |
| 2026-05-06 13:30 | 38.25977 | -12.13680 | 39073 ft | 448 kts | 212° |
| 2026-05-06 13:30 | 38.20575 | -12.17519 | 39086 ft | 448 kts | 212° |
| 2026-05-06 13:31 | 38.15140 | -12.21377 | 39086 ft | 448 kts | 212° |
| 2026-05-06 13:31 | 38.09702 | -12.25230 | 39086 ft | 448 kts | 212° |
| 2026-05-06 13:32 | 38.04260 | -12.29080 | 39086 ft | 448 kts | 212° |
| 2026-05-06 13:32 | 37.98821 | -12.32920 | 39078 ft | 447 kts | 212° |
| 2026-05-06 13:33 | 37.93420 | -12.36727 | 39089 ft | 447 kts | 212° |
| 2026-05-06 13:33 | 37.87987 | -12.40551 | 39088 ft | 447 kts | 212° |
| 2026-05-06 13:34 | 37.82543 | -12.44377 | 39090 ft | 449 kts | 212° |
| 2026-05-06 13:34 | 37.77065 | -12.48219 | 39090 ft | 450 kts | 212° |
| 2026-05-06 13:35 | 37.71620 | -12.52030 | 39092 ft | 450 kts | 212° |
| 2026-05-06 13:35 | 37.66142 | -12.55858 | 39092 ft | 450 kts | 212° |
| 2026-05-06 13:36 | 37.60658 | -12.59683 | 39090 ft | 450 kts | 212° |
| 2026-05-06 13:36 | 37.55215 | -12.63475 | 39094 ft | 450 kts | 212° |
| 2026-05-06 13:37 | 37.49724 | -12.67292 | 39079 ft | 450 kts | 212° |
| 2026-05-06 13:37 | 37.44237 | -12.71101 | 39089 ft | 450 kts | 212° |
| 2026-05-06 13:38 | 37.38755 | -12.74899 | 39091 ft | 450 kts | 212° |
| 2026-05-06 13:38 | 37.33276 | -12.78690 | 39091 ft | 451 kts | 212° |
| 2026-05-06 13:39 | 37.27802 | -12.82472 | 39086 ft | 453 kts | 212° |
| 2026-05-06 13:39 | 37.22268 | -12.86287 | 39090 ft | 454 kts | 212° |
| 2026-05-06 13:40 | 37.16734 | -12.90095 | 39096 ft | 454 kts | 212° |
| 2026-05-06 13:40 | 37.11206 | -12.93893 | 39096 ft | 453 kts | 212° |
| 2026-05-06 13:41 | 37.05711 | -12.97663 | 39091 ft | 453 kts | 212° |
| 2026-05-06 13:41 | 37.00180 | -13.01451 | 39094 ft | 453 kts | 212° |
| 2026-05-06 13:42 | 36.94640 | -13.05239 | 39087 ft | 454 kts | 212° |
| 2026-05-06 13:42 | 36.89096 | -13.09024 | 39093 ft | 454 kts | 212° |
| 2026-05-06 13:43 | 36.83589 | -13.12776 | 39092 ft | 454 kts | 212° |
| 2026-05-06 13:43 | 36.78034 | -13.16557 | 39094 ft | 457 kts | 213° |
| 2026-05-06 13:44 | 36.72442 | -13.20356 | 39077 ft | 458 kts | 213° |
| 2026-05-06 13:44 | 36.66834 | -13.24158 | 39096 ft | 459 kts | 213° |
| 2026-05-06 13:45 | 36.61223 | -13.27956 | 39093 ft | 459 kts | 212° |
| 2026-05-06 13:45 | 36.52858 | -13.33652 | 39093 ft | 459 kts | 213° |
| 2026-05-06 13:46 | 36.47325 | -13.37601 | 39090 ft | 458 kts | 214° |
| 2026-05-06 13:46 | 36.41817 | -13.41568 | 39091 ft | 458 kts | 214° |
| 2026-05-06 13:47 | 36.36302 | -13.45519 | 39108 ft | 457 kts | 214° |
| 2026-05-06 13:47 | 36.30823 | -13.49426 | 39093 ft | 457 kts | 214° |
| 2026-05-06 13:48 | 36.25284 | -13.53366 | 39097 ft | 461 kts | 214° |
| 2026-05-06 13:48 | 36.19713 | -13.57322 | 39091 ft | 462 kts | 214° |
| 2026-05-06 13:49 | 36.14133 | -13.61274 | 39095 ft | 462 kts | 214° |
| 2026-05-06 13:49 | 36.08595 | -13.65192 | 39100 ft | 462 kts | 214° |
| 2026-05-06 13:50 | 36.03018 | -13.69131 | 39099 ft | 462 kts | 214° |
| 2026-05-06 13:50 | 35.97440 | -13.73065 | 39100 ft | 462 kts | 214° |
| 2026-05-06 13:51 | 35.91860 | -13.76995 | 39098 ft | 462 kts | 214° |
| 2026-05-06 13:51 | 35.86276 | -13.80920 | 39102 ft | 462 kts | 214° |
| 2026-05-06 13:52 | 35.80724 | -13.84816 | 39102 ft | 462 kts | 214° |
| 2026-05-06 13:52 | 35.75124 | -13.88741 | 39102 ft | 465 kts | 214° |
| 2026-05-06 13:53 | 35.69488 | -13.92685 | 39103 ft | 467 kts | 214° |
| 2026-05-06 13:53 | 35.63835 | -13.96631 | 39105 ft | 467 kts | 214° |
| 2026-05-06 13:54 | 35.58228 | -14.00537 | 39102 ft | 467 kts | 214° |
| 2026-05-06 13:54 | 35.52576 | -14.04471 | 39102 ft | 467 kts | 214° |
| 2026-05-06 13:55 | 35.46925 | -14.08398 | 39105 ft | 467 kts | 214° |
| 2026-05-06 13:55 | 35.41271 | -14.12321 | 39095 ft | 467 kts | 214° |
| 2026-05-06 13:56 | 35.35657 | -14.16208 | 39102 ft | 467 kts | 214° |
| 2026-05-06 13:56 | 35.29999 | -14.20121 | 39103 ft | 467 kts | 214° |
| 2026-05-06 13:57 | 35.24342 | -14.24027 | 39101 ft | 468 kts | 214° |
| 2026-05-06 13:57 | 35.18652 | -14.27950 | 39106 ft | 470 kts | 214° |
| 2026-05-06 13:58 | 35.12986 | -14.31848 | 39109 ft | 470 kts | 214° |
| 2026-05-06 13:58 | 35.07284 | -14.35765 | 39107 ft | 470 kts | 214° |
| 2026-05-06 13:59 | 35.01581 | -14.39676 | 39110 ft | 470 kts | 214° |
| 2026-05-06 13:59 | 34.95874 | -14.43585 | 39114 ft | 470 kts | 214° |
| 2026-05-06 14:00 | 34.90165 | -14.47486 | 39113 ft | 470 kts | 214° |
| 2026-05-06 14:00 | 34.84456 | -14.51384 | 39117 ft | 471 kts | 214° |
| 2026-05-06 14:01 | 34.78780 | -14.55253 | 39114 ft | 471 kts | 214° |
| 2026-05-06 14:01 | 34.73062 | -14.59145 | 39107 ft | 472 kts | 214° |
| 2026-05-06 14:02 | 34.67308 | -14.63057 | 39114 ft | 475 kts | 214° |
| 2026-05-06 14:02 | 34.61532 | -14.66974 | 39113 ft | 476 kts | 214° |
| 2026-05-06 14:03 | 34.55791 | -14.70860 | 39112 ft | 475 kts | 214° |
| 2026-05-06 14:03 | 34.50022 | -14.74759 | 39113 ft | 475 kts | 214° |
| 2026-05-06 14:04 | 34.44254 | -14.78653 | 39113 ft | 475 kts | 214° |
| 2026-05-06 14:04 | 34.38483 | -14.82543 | 39116 ft | 475 kts | 214° |
| 2026-05-06 14:05 | 34.32751 | -14.86400 | 39097 ft | 475 kts | 213° |
| 2026-05-06 14:05 | 34.26981 | -14.90276 | 39113 ft | 475 kts | 213° |
| 2026-05-06 14:06 | 34.21105 | -14.93964 | 39106 ft | 476 kts | 211° |
| 2026-05-06 14:06 | 34.15146 | -14.97516 | 39116 ft | 480 kts | 211° |
| 2026-05-06 14:07 | 34.09192 | -15.01059 | 39111 ft | 481 kts | 211° |
| 2026-05-06 14:07 | 34.03194 | -15.04628 | 39116 ft | 481 kts | 211° |
| 2026-05-06 14:08 | 33.97200 | -15.08189 | 39104 ft | 480 kts | 211° |
| 2026-05-06 14:08 | 33.91205 | -15.11746 | 39117 ft | 480 kts | 211° |
| 2026-05-06 14:09 | 33.85249 | -15.15275 | 39117 ft | 480 kts | 211° |
| 2026-05-06 14:09 | 33.79254 | -15.18822 | 39102 ft | 480 kts | 211° |
| 2026-05-06 14:10 | 33.73262 | -15.22361 | 39108 ft | 479 kts | 210° |
| 2026-05-06 14:10 | 33.67288 | -15.25884 | 39111 ft | 478 kts | 210° |
| 2026-05-06 14:11 | 33.61357 | -15.29376 | 39113 ft | 478 kts | 210° |
| 2026-05-06 14:11 | 33.55386 | -15.32886 | 39111 ft | 478 kts | 210° |
| 2026-05-06 14:12 | 33.49412 | -15.36393 | 39103 ft | 478 kts | 210° |
| 2026-05-06 14:12 | 33.43441 | -15.39892 | 39114 ft | 478 kts | 210° |
| 2026-05-06 14:13 | 33.37467 | -15.43388 | 39114 ft | 478 kts | 210° |
| 2026-05-06 14:13 | 33.31524 | -15.46860 | 39114 ft | 478 kts | 210° |
| 2026-05-06 14:14 | 33.25547 | -15.50347 | 39113 ft | 478 kts | 210° |
| 2026-05-06 14:14 | 33.19571 | -15.53828 | 39111 ft | 477 kts | 210° |
| 2026-05-06 14:15 | 33.13612 | -15.57293 | 39113 ft | 476 kts | 210° |
| 2026-05-06 14:15 | 33.07693 | -15.60731 | 39113 ft | 476 kts | 210° |
| 2026-05-06 14:16 | 33.01743 | -15.64181 | 39113 ft | 476 kts | 210° |
| 2026-05-06 14:16 | 32.95764 | -15.67644 | 39117 ft | 480 kts | 210° |
| 2026-05-06 14:17 | 32.89750 | -15.71120 | 39113 ft | 480 kts | 209° |
| 2026-05-06 14:17 | 32.83794 | -15.74557 | 39113 ft | 479 kts | 209° |
| 2026-05-06 14:18 | 32.77804 | -15.78009 | 39113 ft | 479 kts | 209° |
| 2026-05-06 14:18 | 32.71805 | -15.81462 | 39116 ft | 479 kts | 209° |
| 2026-05-06 14:19 | 32.65814 | -15.84904 | 39098 ft | 479 kts | 209° |
| 2026-05-06 14:19 | 32.59866 | -15.88317 | 39113 ft | 478 kts | 208° |
| 2026-05-06 14:20 | 32.53880 | -15.91746 | 39113 ft | 477 kts | 208° |
| 2026-05-06 14:20 | 32.47898 | -15.95169 | 39116 ft | 477 kts | 208° |
| 2026-05-06 14:21 | 32.41921 | -15.98583 | 39115 ft | 477 kts | 208° |
| 2026-05-06 14:21 | 32.35966 | -16.01980 | 39111 ft | 479 kts | 209° |
| 2026-05-06 14:22 | 32.29944 | -16.05410 | 39109 ft | 481 kts | 209° |
| 2026-05-06 14:22 | 32.23905 | -16.08844 | 39109 ft | 482 kts | 209° |
| 2026-05-06 14:23 | 32.17866 | -16.12273 | 39109 ft | 481 kts | 209° |
| 2026-05-06 14:23 | 32.11875 | -16.15669 | 39109 ft | 481 kts | 209° |
| 2026-05-06 14:24 | 32.05844 | -16.19084 | 39096 ft | 481 kts | 208° |
| 2026-05-06 14:24 | 31.99820 | -16.22490 | 39118 ft | 480 kts | 208° |
| 2026-05-06 14:25 | 31.93834 | -16.25869 | 39103 ft | 480 kts | 208° |
| 2026-05-06 14:25 | 31.87813 | -16.29263 | 39097 ft | 480 kts | 208° |
| 2026-05-06 14:26 | 31.81788 | -16.32654 | 39102 ft | 480 kts | 208° |
| 2026-05-06 14:26 | 31.75771 | -16.36036 | 39096 ft | 479 kts | 208° |
| 2026-05-06 14:27 | 31.69785 | -16.39397 | 39105 ft | 482 kts | 208° |
| 2026-05-06 14:27 | 31.63725 | -16.42793 | 39101 ft | 482 kts | 208° |
| 2026-05-06 14:28 | 31.57673 | -16.46179 | 39102 ft | 482 kts | 208° |
| 2026-05-06 14:28 | 31.51616 | -16.49564 | 39094 ft | 482 kts | 208° |
| 2026-05-06 14:29 | 31.45602 | -16.52914 | 39102 ft | 482 kts | 207° |
| 2026-05-06 14:29 | 31.39177 | -16.55138 | 39095 ft | 486 kts | 186° |
| 2026-05-06 14:30 | 31.32421 | -16.54882 | 39102 ft | 488 kts | 175° |
| 2026-05-06 14:30 | 31.25642 | -16.54143 | 39090 ft | 490 kts | 175° |
| 2026-05-06 14:31 | 31.18865 | -16.53425 | 39091 ft | 487 kts | 175° |
| 2026-05-06 14:31 | 31.12172 | -16.52731 | 39095 ft | 486 kts | 175° |
| 2026-05-06 14:32 | 31.05432 | -16.52037 | 39088 ft | 486 kts | 175° |
| 2026-05-06 14:32 | 30.98694 | -16.51346 | 39088 ft | 486 kts | 175° |
| 2026-05-06 14:33 | 30.91954 | -16.50656 | 39088 ft | 485 kts | 175° |
| 2026-05-06 14:33 | 30.85273 | -16.49974 | 39088 ft | 485 kts | 175° |
| 2026-05-06 14:34 | 30.78545 | -16.49288 | 39093 ft | 485 kts | 175° |
| 2026-05-06 14:34 | 30.71819 | -16.48602 | 39079 ft | 485 kts | 175° |
| 2026-05-06 14:35 | 30.65097 | -16.47918 | 39084 ft | 485 kts | 175° |
| 2026-05-06 14:35 | 30.58425 | -16.47241 | 39078 ft | 484 kts | 175° |
| 2026-05-06 14:36 | 30.51712 | -16.46560 | 39077 ft | 484 kts | 175° |
| 2026-05-06 14:36 | 30.44992 | -16.45879 | 39071 ft | 484 kts | 176° |
| 2026-05-06 14:37 | 30.38279 | -16.45200 | 39074 ft | 484 kts | 176° |
| 2026-05-06 14:37 | 30.31612 | -16.44526 | 39073 ft | 484 kts | 176° |
| 2026-05-06 14:38 | 30.24899 | -16.43849 | 39073 ft | 484 kts | 176° |
| 2026-05-06 14:38 | 30.18186 | -16.43172 | 39071 ft | 484 kts | 176° |
| 2026-05-06 14:39 | 30.11487 | -16.42498 | 39069 ft | 483 kts | 176° |
| 2026-05-06 14:39 | 30.04841 | -16.41831 | 39060 ft | 483 kts | 176° |
| 2026-05-06 14:40 | 29.98145 | -16.41159 | 39069 ft | 483 kts | 176° |
| 2026-05-06 14:40 | 29.91458 | -16.40489 | 39053 ft | 483 kts | 176° |
| 2026-05-06 14:41 | 29.84787 | -16.39821 | 39055 ft | 479 kts | 176° |
| 2026-05-06 14:41 | 29.78194 | -16.39162 | 39056 ft | 479 kts | 176° |
| 2026-05-06 14:42 | 29.71559 | -16.38500 | 39060 ft | 479 kts | 176° |
| 2026-05-06 14:42 | 29.64920 | -16.37839 | 39054 ft | 479 kts | 176° |
| 2026-05-06 14:43 | 29.61600 | -16.37788 | 39049 ft | 476 kts | 188° |
| 2026-05-06 14:43 | 29.58403 | -16.38657 | 39049 ft | 470 kts | 204° |
| 2026-05-06 14:43 | 29.55601 | -16.40425 | 39052 ft | 464 kts | 219° |
| 2026-05-06 14:43 | 29.53084 | -16.42728 | 39053 ft | 462 kts | 223° |
| 2026-05-06 14:44 | 29.48168 | -16.47506 | 39050 ft | 464 kts | 223° |
| 2026-05-06 14:45 | 29.40718 | -16.54603 | 39049 ft | 464 kts | 222° |
| 2026-05-06 14:45 | 29.35762 | -16.59275 | 39048 ft | 464 kts | 222° |
| 2026-05-06 14:46 | 29.30775 | -16.63960 | 39045 ft | 462 kts | 222° |
| 2026-05-06 14:46 | 29.25809 | -16.68619 | 39045 ft | 461 kts | 222° |
| 2026-05-06 14:47 | 29.20841 | -16.73274 | 39041 ft | 463 kts | 222° |
| 2026-05-06 14:47 | 29.15871 | -16.77925 | 39042 ft | 466 kts | 222° |
| 2026-05-06 14:48 | 29.10847 | -16.82618 | 39046 ft | 466 kts | 222° |
| 2026-05-06 14:48 | 29.05821 | -16.87307 | 38484 ft | 465 kts | 222° |
| 2026-05-06 14:48 | 29.03316 | -16.89641 | 37853 ft | 466 kts | 222° |
| 2026-05-06 14:49 | 29.00809 | -16.91977 | 37283 ft | 465 kts | 222° |
| 2026-05-06 14:49 | 28.98301 | -16.94311 | 36710 ft | 464 kts | 222° |
| 2026-05-06 14:49 | 28.95823 | -16.96617 | 35940 ft | 470 kts | 222° |
| 2026-05-06 14:49 | 28.93264 | -16.98997 | 34932 ft | 480 kts | 222° |
| 2026-05-06 14:50 | 28.90648 | -17.01429 | 33890 ft | 490 kts | 222° |
| 2026-05-06 14:50 | 28.87977 | -17.03908 | 32785 ft | 498 kts | 221° |
| 2026-05-06 14:50 | 28.85279 | -17.06408 | 31824 ft | 501 kts | 222° |
| 2026-05-06 14:50 | 28.82563 | -17.08925 | 30959 ft | 503 kts | 221° |
| 2026-05-06 14:51 | 28.79858 | -17.11429 | 30352 ft | 499 kts | 221° |
| 2026-05-06 14:51 | 28.77181 | -17.13905 | 29708 ft | 493 kts | 221° |
| 2026-05-06 14:51 | 28.74528 | -17.16359 | 29022 ft | 489 kts | 221° |
| 2026-05-06 14:51 | 28.71937 | -17.18755 | 28383 ft | 484 kts | 221° |
| 2026-05-06 14:52 | 28.69338 | -17.21156 | 27819 ft | 477 kts | 221° |
| 2026-05-06 14:52 | 28.66781 | -17.23517 | 27217 ft | 471 kts | 221° |
| 2026-05-06 14:52 | 28.64247 | -17.25856 | 26523 ft | 468 kts | 221° |
| 2026-05-06 14:52 | 28.61728 | -17.28181 | 25883 ft | 464 kts | 221° |
| 2026-05-06 14:53 | 28.59230 | -17.30483 | 25265 ft | 460 kts | 221° |
| 2026-05-06 14:53 | 28.56755 | -17.32764 | 24649 ft | 456 kts | 221° |
| 2026-05-06 14:53 | 28.54299 | -17.35025 | 24056 ft | 452 kts | 221° |
| 2026-05-06 14:53 | 28.51866 | -17.37264 | 23444 ft | 448 kts | 221° |
| 2026-05-06 14:54 | 28.49491 | -17.39448 | 22865 ft | 442 kts | 221° |
| 2026-05-06 14:54 | 28.47105 | -17.41640 | 22107 ft | 440 kts | 221° |
| 2026-05-06 14:54 | 28.44764 | -17.43826 | 21580 ft | 432 kts | 221° |
| 2026-05-06 14:54 | 28.42204 | -17.45585 | 20982 ft | 433 kts | 203° |
| 2026-05-06 14:55 | 28.39282 | -17.46313 | 20388 ft | 430 kts | 184° |
| 2026-05-06 14:55 | 28.36344 | -17.45991 | 19549 ft | 420 kts | 166° |
| 2026-05-06 14:55 | 28.33695 | -17.44671 | 18393 ft | 417 kts | 147° |
| 2026-05-06 14:55 | 28.31605 | -17.42487 | 17092 ft | 413 kts | 130° |
| 2026-05-06 14:56 | 28.29755 | -17.40039 | 16186 ft | 399 kts | 134° |
| 2026-05-06 14:56 | 28.27789 | -17.37956 | 15709 ft | 375 kts | 141° |
| 2026-05-06 14:56 | 28.25775 | -17.36207 | 15262 ft | 356 kts | 146° |
| 2026-05-06 14:56 | 28.23737 | -17.34692 | 14797 ft | 350 kts | 149° |
| 2026-05-06 14:57 | 28.21631 | -17.33293 | 14334 ft | 351 kts | 152° |
| 2026-05-06 14:57 | 28.19490 | -17.31970 | 13888 ft | 349 kts | 153° |
| 2026-05-06 14:57 | 28.17344 | -17.30699 | 13381 ft | 347 kts | 154° |
| 2026-05-06 14:57 | 28.15210 | -17.29465 | 12902 ft | 344 kts | 154° |
| 2026-05-06 14:58 | 28.13106 | -17.28266 | 12459 ft | 341 kts | 154° |
| 2026-05-06 14:58 | 28.10996 | -17.27072 | 12037 ft | 339 kts | 154° |
| 2026-05-06 14:58 | 28.08893 | -17.25888 | 11594 ft | 336 kts | 154° |
| 2026-05-06 14:58 | 28.06807 | -17.24718 | 11143 ft | 334 kts | 154° |
| 2026-05-06 14:59 | 28.04736 | -17.23557 | 10692 ft | 331 kts | 154° |
| 2026-05-06 14:59 | 28.02714 | -17.22423 | 10470 ft | 312 kts | 154° |
| 2026-05-06 14:59 | 28.00848 | -17.21378 | 10390 ft | 289 kts | 154° |
| 2026-05-06 14:59 | 27.99068 | -17.20384 | 10296 ft | 284 kts | 154° |
| 2026-05-06 15:00 | 27.97330 | -17.19415 | 10157 ft | 285 kts | 154° |
| 2026-05-06 15:00 | 27.95581 | -17.18439 | 9847 ft | 276 kts | 154° |
| 2026-05-06 15:00 | 27.93881 | -17.17490 | 9223 ft | 268 kts | 154° |
| 2026-05-06 15:00 | 27.92224 | -17.16570 | 8593 ft | 262 kts | 155° |
| 2026-05-06 15:01 | 27.90576 | -17.15733 | 8017 ft | 256 kts | 157° |
| 2026-05-06 15:01 | 27.88987 | -17.14965 | 7762 ft | 239 kts | 157° |
| 2026-05-06 15:01 | 27.87520 | -17.14205 | 7504 ft | 227 kts | 151° |
| 2026-05-06 15:01 | 27.86289 | -17.13132 | 7144 ft | 223 kts | 132° |
| 2026-05-06 15:02 | 27.85479 | -17.11684 | 6746 ft | 221 kts | 110° |
| 2026-05-06 15:02 | 27.85181 | -17.10003 | 6356 ft | 217 kts | 89° |
| 2026-05-06 15:02 | 27.85414 | -17.08345 | 5958 ft | 213 kts | 70° |
| 2026-05-06 15:02 | 27.85948 | -17.06796 | 5647 ft | 211 kts | 64° |
| 2026-05-06 15:03 | 27.86536 | -17.05280 | 5281 ft | 209 kts | 64° |
| 2026-05-06 15:03 | 27.87119 | -17.03782 | 4925 ft | 206 kts | 63° |
| 2026-05-06 15:03 | 27.87828 | -17.02314 | 4787 ft | 224 kts | 54° |
| 2026-05-06 15:03 | 27.88593 | -17.00811 | 4632 ft | 217 kts | 56° |
| 2026-05-06 15:04 | 27.89439 | -16.99445 | 4520 ft | 215 kts | 54° |
| 2026-05-06 15:04 | 27.90217 | -16.98007 | 4391 ft | 214 kts | 58° |
| 2026-05-06 15:04 | 27.90872 | -16.96499 | 4339 ft | 214 kts | 65° |
| 2026-05-06 15:04 | 27.91406 | -16.94923 | 4331 ft | 215 kts | 68° |
| 2026-05-06 15:05 | 27.91918 | -16.93336 | 4330 ft | 215 kts | 67° |
| 2026-05-06 15:05 | 27.92452 | -16.91761 | 4335 ft | 214 kts | 66° |
| 2026-05-06 15:05 | 27.92999 | -16.90199 | 4339 ft | 214 kts | 66° |
| 2026-05-06 15:05 | 27.93553 | -16.88622 | 4029 ft | 218 kts | 66° |
| 2026-05-06 15:06 | 27.94102 | -16.87050 | 3614 ft | 220 kts | 66° |
| 2026-05-06 15:06 | 27.94659 | -16.85430 | 3297 ft | 219 kts | 66° |
| 2026-05-06 15:06 | 27.95209 | -16.83848 | 3056 ft | 214 kts | 66° |
| 2026-05-06 15:06 | 27.95754 | -16.82290 | 2765 ft | 212 kts | 66° |
| 2026-05-06 15:07 | 27.96294 | -16.80746 | 2471 ft | 211 kts | 66° |
| 2026-05-06 15:07 | 27.96833 | -16.79202 | 2178 ft | 209 kts | 67° |
| 2026-05-06 15:07 | 27.97348 | -16.77716 | 2112 ft | 195 kts | 67° |
| 2026-05-06 15:07 | 27.97835 | -16.76309 | 2105 ft | 190 kts | 67° |
| 2026-05-06 15:08 | 27.98316 | -16.74920 | 2107 ft | 190 kts | 67° |
| 2026-05-06 15:08 | 27.98791 | -16.73549 | 2112 ft | 190 kts | 67° |
| 2026-05-06 15:08 | 27.99270 | -16.72166 | 2109 ft | 189 kts | 66° |
| 2026-05-06 15:08 | 27.99744 | -16.70800 | 2111 ft | 189 kts | 66° |
| 2026-05-06 15:09 | 28.00224 | -16.69417 | 2120 ft | 187 kts | 66° |
| 2026-05-06 15:09 | 28.00687 | -16.68081 | 2010 ft | 180 kts | 68° |
| 2026-05-06 15:09 | 28.01149 | -16.66745 | 1745 ft | 182 kts | 68° |
| 2026-05-06 15:09 | 28.01609 | -16.65416 | 1489 ft | 180 kts | 67° |
| 2026-05-06 15:10 | 28.02061 | -16.64116 | 1243 ft | 173 kts | 68° |
| 2026-05-06 15:10 | 28.02463 | -16.62943 | 1063 ft | 150 kts | 71° |
| 2026-05-06 15:10 | 28.02822 | -16.61890 | 848 ft | 136 kts | 68° |
| 2026-05-06 15:10 | 28.03147 | -16.60917 | 648 ft | 130 kts | 70° |
| 2026-05-06 15:11 | 28.03484 | -16.59994 | 483 ft | 126 kts | 70° |
| 2026-05-06 15:11 | 28.03800 | -16.59085 | 305 ft | 124 kts | 70° |
| 2026-05-06 15:11 | 28.04118 | -16.58179 | 212 ft | 122 kts | 69° |
| 2026-05-06 15:11 | 28.04392 | -16.57393 | 217 ft | 90 kts | 68° |
| 2026-05-06 15:12 | 28.04581 | -16.56865 | 219 ft | 57 kts | 68° |
| 2026-05-06 15:12 | 28.04713 | -16.56554 | 211 ft | 26 kts | 50° |
| 2026-05-06 15:12 | 28.04843 | -16.56416 | 216 ft | 25 kts | 42° |
| 2026-05-06 15:12 | 28.04924 | -16.56392 | 219 ft | 7 kts | 301° |
| 2026-05-06 15:13 | 28.04911 | -16.56474 | 212 ft | 16 kts | 251° |
| 2026-05-06 15:13 | 28.04851 | -16.56643 | 220 ft | 31 kts | 249° |
| 2026-05-06 15:13 | 28.04762 | -16.56900 | 218 ft | 37 kts | 248° |
| 2026-05-06 15:13 | 28.04695 | -16.57095 | 214 ft | 24 kts | 246° |
| 2026-05-06 15:14 | 28.04624 | -16.57272 | 210 ft | 23 kts | 249° |
| 2026-05-06 15:14 | 28.04577 | -16.57414 | 216 ft | 16 kts | 250° |
| 2026-05-06 15:14 | 28.04601 | -16.57475 | 206 ft | 9 kts | 342° |
| 2026-05-06 15:14 | 28.04667 | -16.57490 | 208 ft | 9 kts | 346° |
| 2026-05-06 15:15 | 28.04728 | -16.57508 | 213 ft | 8 kts | 355° |
| 2026-05-06 15:15 | 28.04772 | -16.57504 | 212 ft | 0 kts | 11° |